Time;durP1;ratioP1;P1;durP2;ratioP2;P2;SDS_P1;SDS_P2;PMS_P1;PMS_P2;Temp;Humidity;BMP_temperature;BMP_pressure;BME280_temperature;BME280_humidity;BME280_pressure;Samples;Min_cycle;Max_cycle;Signal;HPM_P1;HPM_P2
2023/02/01 00:01:44;;;;;;;9.85;2.40;;;;;;;18.75;41.45;101994.50;4991893;28;20033;-72
2023/02/01 00:04:10;;;;;;;9.25;2.92;;;;;;;18.73;41.32;101991.94;4993369;28;20041;-72
2023/02/01 00:06:35;;;;;;;7.68;2.33;;;;;;;18.66;41.38;101978.31;4992575;28;20042;-71
2023/02/01 00:09:00;;;;;;;7.40;3.13;;;;;;;18.71;41.13;101982.44;4997618;28;20073;-74
2023/02/01 00:11:26;;;;;;;8.65;2.33;;;;;;;18.64;41.08;101968.78;4991003;28;20382;-73
2023/02/01 00:13:51;;;;;;;7.10;2.25;;;;;;;18.66;40.82;101973.03;4991745;28;20034;-71
2023/02/01 00:16:20;;;;;;;8.60;2.00;;;;;;;18.66;40.74;101978.31;4992239;28;20040;-73
2023/02/01 00:18:46;;;;;;;7.53;2.30;;;;;;;18.65;40.63;101970.50;4990550;28;20034;-75
2023/02/01 00:21:12;;;;;;;7.65;2.30;;;;;;;18.62;40.49;101947.75;4992952;28;20486;-72
2023/02/01 00:23:38;;;;;;;6.68;2.20;;;;;;;18.60;40.23;101943.56;4991482;28;20109;-71
2023/02/01 00:26:07;;;;;;;8.48;2.47;;;;;;;18.59;39.98;101928.66;4992503;28;20037;-73
2023/02/01 00:28:33;;;;;;;6.85;2.03;;;;;;;18.56;39.92;101945.53;4998554;28;20363;-70
2023/02/01 00:31:00;;;;;;;5.93;1.80;;;;;;;18.56;39.92;101955.25;4992556;28;20034;-71
2023/02/01 00:33:25;;;;;;;7.75;2.05;;;;;;;18.56;39.97;101947.31;4992444;28;20049;-72
2023/02/01 00:35:51;;;;;;;6.18;1.90;;;;;;;18.57;39.88;101944.59;4991361;28;20031;-73
2023/02/01 00:38:16;;;;;;;7.03;2.15;;;;;;;18.53;39.56;101934.34;4992113;28;20034;-71
2023/02/01 00:40:41;;;;;;;8.15;2.08;;;;;;;18.55;39.62;101940.34;4992011;28;20033;-72
2023/02/01 02:13:57;;;;;;;6.70;1.88;;;;;;;18.17;37.83;101954.25;4994868;28;20056;-71
2023/02/01 02:16:33;;;;;;;6.38;1.83;;;;;;;18.11;37.61;101945.78;4994172;28;20652;-71
2023/02/01 02:19:07;;;;;;;6.85;2.22;;;;;;;18.15;37.62;101943.81;4992934;28;20029;-71
2023/02/01 02:22:00;;;;;;;9.98;2.45;;;;;;;18.12;37.84;101936.09;4993542;28;20030;-72
2023/02/01 02:24:54;;;;;;;5.88;2.00;;;;;;;18.11;37.52;101923.81;4993577;28;20046;-73
2023/02/01 02:27:30;;;;;;;4.53;1.48;;;;;;;18.09;37.51;101916.00;4992487;28;20041;-72
2023/02/01 02:30:28;;;;;;;7.07;2.15;;;;;;;18.13;37.63;101914.00;4992529;28;20038;-73
2023/02/01 02:33:18;;;;;;;8.32;2.03;;;;;;;18.13;37.63;101911.38;4992931;28;20038;-71
2023/02/01 02:35:59;;;;;;;9.43;2.00;;;;;;;18.08;37.41;101906.41;4992767;28;20038;-71
2023/02/01 02:38:36;;;;;;;6.63;1.75;;;;;;;18.09;37.71;101910.72;4992758;28;20422;-70
2023/02/01 02:47:23;;;;;;;6.63;2.05;;;;;;;18.08;37.46;101913.47;4992406;28;20140;-70
2023/02/01 03:04:26;;;;;;;6.70;1.98;;;;;;;18.04;37.31;101898.78;4992524;28;20095;-72
2023/02/01 03:06:53;;;;;;;7.15;2.10;;;;;;;18.00;37.39;101899.94;4992577;28;20455;-72
2023/02/01 03:09:35;;;;;;;5.60;1.92;;;;;;;18.03;37.31;101905.00;4992312;28;20534;-74
2023/02/01 03:14:57;;;;;;;6.55;2.00;;;;;;;18.02;37.50;101890.13;4992078;28;20041;-72
2023/02/01 03:17:30;;;;;;;6.95;1.92;;;;;;;17.98;37.29;101880.72;4992062;28;20026;-71
2023/02/01 03:20:00;;;;;;;6.28;2.13;;;;;;;17.99;37.50;101893.81;4990658;28;20037;-73
2023/02/01 03:22:31;;;;;;;6.88;2.20;;;;;;;17.96;37.27;101894.00;4989304;28;20034;-75
2023/02/01 03:25:05;;;;;;;8.27;2.72;;;;;;;17.95;37.34;101892.31;4989151;28;20140;-72
2023/02/01 03:27:35;;;;;;;5.97;1.98;;;;;;;17.95;37.19;101890.50;4989371;28;20114;-72
2023/02/01 03:30:31;;;;;;;4.90;1.63;;;;;;;17.98;37.19;101888.66;4991038;28;20041;-69
2023/02/01 03:32:59;;;;;;;7.05;1.80;;;;;;;17.94;37.17;101886.19;4989699;28;20053;-71
2023/02/01 03:35:39;;;;;;;6.78;2.20;;;;;;;17.95;37.41;101893.16;4988434;28;20371;-71
2023/02/01 03:38:26;;;;;;;5.57;1.58;;;;;;;17.95;37.29;101894.94;4989728;28;20928;-72
2023/02/01 03:41:14;;;;;;;6.05;1.90;;;;;;;17.91;37.17;101877.63;4988807;28;20399;-75
2023/02/01 03:43:53;;;;;;;9.05;2.50;;;;;;;17.93;37.26;101881.03;4991160;28;20038;-71
2023/02/01 03:46:32;;;;;;;8.55;1.95;;;;;;;17.92;37.22;101877.53;4990556;28;20065;-73
2023/02/01 03:49:06;;;;;;;7.13;1.70;;;;;;;17.91;36.95;101881.13;4989237;28;20038;-70
2023/02/01 03:51:32;;;;;;;6.38;2.03;;;;;;;17.89;37.01;101883.00;4989300;28;20030;-72
2023/02/01 03:53:59;;;;;;;7.18;1.90;;;;;;;17.91;36.88;101881.13;4991516;28;20378;-70
2023/02/01 03:56:27;;;;;;;8.48;2.00;;;;;;;17.88;37.31;101880.44;4989151;28;20091;-71
2023/02/01 03:59:01;;;;;;;7.15;1.85;;;;;;;17.88;36.98;101872.53;4989857;28;20026;-72
2023/02/01 04:01:28;;;;;;;6.53;2.20;;;;;;;17.88;37.27;101868.13;4994724;28;20038;-75
2023/02/01 04:03:54;;;;;;;6.70;1.83;;;;;;;17.87;37.08;101884.03;4991675;28;20033;-71
2023/02/01 04:06:19;;;;;;;6.78;1.80;;;;;;;17.86;36.94;101885.78;4991706;28;20037;-75
2023/02/01 04:08:44;;;;;;;8.32;2.15;;;;;;;17.86;36.92;101877.03;4991829;28;20046;-72
2023/02/01 04:11:10;;;;;;;8.30;2.40;;;;;;;17.89;36.93;101874.25;4991434;28;20034;-73
2023/02/01 04:13:35;;;;;;;7.95;1.80;;;;;;;17.84;36.84;101860.47;4991207;28;20096;-72
2023/02/01 04:16:00;;;;;;;6.55;2.28;;;;;;;17.84;37.08;101858.69;4995109;28;20416;-70
2023/02/01 04:18:25;;;;;;;6.03;1.83;;;;;;;17.83;36.99;101858.78;5004489;28;20041;-70
2023/02/01 04:20:51;;;;;;;8.15;2.13;;;;;;;17.82;36.82;101857.94;4999219;28;20268;-73
2023/02/01 04:23:16;;;;;;;5.47;1.60;;;;;;;17.82;37.01;101857.94;4992816;28;20092;-72
2023/02/01 04:25:41;;;;;;;7.93;1.98;;;;;;;17.81;37.03;101869.41;5001463;28;20260;-69
2023/02/01 04:28:07;;;;;;;5.93;1.75;;;;;;;17.83;37.19;101871.97;4992336;28;20041;-72
2023/02/01 04:30:32;;;;;;;9.32;2.20;;;;;;;17.86;36.99;101877.03;4991790;28;20026;-71
2023/02/01 04:32:58;;;;;;;6.30;2.08;;;;;;;17.83;37.02;101878.09;4991218;28;20506;-71
2023/02/01 04:35:23;;;;;;;8.85;2.10;;;;;;;17.80;36.77;101870.38;4991715;28;20033;-70
2023/02/01 04:37:48;;;;;;;7.30;1.77;;;;;;;17.79;36.88;101867.84;4992125;28;20041;-72
2023/02/01 04:40:13;;;;;;;7.95;2.20;;;;;;;17.82;37.04;101867.66;4990906;28;20071;-72
2023/02/01 04:42:39;;;;;;;7.43;2.08;;;;;;;17.81;37.04;101876.50;4991595;28;20029;-72
2023/02/01 04:45:05;;;;;;;9.32;2.15;;;;;;;17.78;36.96;101864.34;4991446;28;20471;-71
2023/02/01 04:47:30;;;;;;;7.82;2.22;;;;;;;17.77;36.93;101868.78;4991091;28;20034;-71
2023/02/01 04:49:55;;;;;;;11.02;2.20;;;;;;;17.77;36.88;101862.66;4991419;28;20041;-71
2023/02/01 04:52:21;;;;;;;11.95;3.67;;;;;;;17.78;36.73;101872.25;4991224;28;20042;-71
2023/02/01 04:54:46;;;;;;;6.88;2.10;;;;;;;17.80;37.13;101883.56;4991944;28;20038;-72
2023/02/01 04:57:13;;;;;;;6.78;1.75;;;;;;;17.76;36.85;101877.63;4989870;28;20038;-73
2023/02/01 04:59:38;;;;;;;7.95;2.40;;;;;;;17.74;37.07;101882.16;4994687;28;20037;-74
2023/02/01 05:02:04;;;;;;;9.18;2.10;;;;;;;17.79;37.05;101892.41;4995016;28;20402;-70
2023/02/01 05:04:29;;;;;;;7.63;2.20;;;;;;;17.75;36.92;101897.03;4995360;28;20066;-71
2023/02/01 05:06:54;;;;;;;9.43;2.30;;;;;;;17.78;36.94;101903.88;4995035;28;20389;-71
2023/02/01 05:09:21;;;;;;;8.18;2.17;;;;;;;17.75;37.06;101897.03;4994780;28;20041;-70
2023/02/01 05:14:30;;;;;;;6.45;1.90;;;;;;;17.71;36.74;101890.25;4995040;28;20044;-71
2023/02/01 05:16:56;;;;;;;9.00;2.60;;;;;;;17.74;37.04;101889.22;4994417;28;20739;-70
2023/02/01 05:19:21;;;;;;;9.18;2.30;;;;;;;17.73;36.96;101888.34;4994505;28;20026;-70
2023/02/01 05:21:46;;;;;;;8.85;2.60;;;;;;;17.72;36.82;101891.97;4994469;28;20108;-72
2023/02/01 05:24:13;;;;;;;11.23;2.30;;;;;;;17.73;37.02;101887.53;4994802;28;20493;-71
2023/02/01 05:26:40;;;;;;;6.95;2.05;;;;;;;17.73;36.71;101876.97;4994116;28;20045;-73
2023/02/01 05:29:06;;;;;;;6.43;1.95;;;;;;;17.73;36.76;101869.91;4994159;28;20153;-72
2023/02/01 05:31:32;;;;;;;8.70;1.95;;;;;;;17.72;37.00;101876.13;4994036;28;20036;-72
2023/02/01 05:33:57;;;;;;;9.38;2.83;;;;;;;17.70;37.29;101869.25;4994252;28;20034;-73
2023/02/01 05:36:22;;;;;;;7.30;2.03;;;;;;;17.70;37.04;101861.34;4994483;28;20033;-72
2023/02/01 05:38:48;;;;;;;10.40;2.33;;;;;;;17.71;36.81;101857.78;4993832;28;20034;-71
2023/02/01 05:41:13;;;;;;;7.72;2.20;;;;;;;17.70;36.92;101869.25;4993866;28;20038;-73
2023/02/01 05:43:38;;;;;;;10.80;2.17;;;;;;;17.74;37.32;101871.59;4994402;28;20074;-73
2023/02/01 05:46:04;;;;;;;8.70;2.20;;;;;;;17.75;37.71;101877.72;4994225;28;20030;-70
2023/02/01 05:48:29;;;;;;;8.10;2.33;;;;;;;17.80;37.85;101882.69;4994476;28;20030;-70
2023/02/01 05:50:54;;;;;;;6.35;1.90;;;;;;;17.82;37.80;101881.66;4994060;28;20034;-71
2023/02/01 05:53:20;;;;;;;6.53;2.20;;;;;;;17.84;37.75;101876.28;4994237;28;20137;-72
2023/02/01 05:55:45;;;;;;;5.28;1.60;;;;;;;17.90;37.84;101883.84;4993469;28;20038;-72
2023/02/01 05:58:12;;;;;;;7.00;1.73;;;;;;;17.98;37.78;101892.13;4994156;28;20107;-71
2023/02/01 06:00:37;;;;;;;6.72;1.83;;;;;;;18.02;37.37;101882.22;4992862;28;20116;-73
2023/02/01 06:03:03;;;;;;;8.18;1.70;;;;;;;18.08;37.63;101892.38;4993899;28;20392;-71
2023/02/01 06:05:28;;;;;;;7.25;1.73;;;;;;;18.10;37.31;101888.69;4994271;28;20045;-72
2023/02/01 06:07:53;;;;;;;8.30;2.00;;;;;;;18.15;37.39;101888.41;4993923;28;20058;-73
2023/02/01 06:10:19;;;;;;;8.23;2.10;;;;;;;18.18;37.24;101880.25;4993035;28;20125;-72
2023/02/01 06:12:45;;;;;;;7.47;2.03;;;;;;;18.24;37.35;101892.22;4994091;28;20070;-76
2023/02/01 06:15:11;;;;;;;8.50;2.05;;;;;;;18.25;37.74;101886.00;4993261;28;20038;-73
2023/02/01 06:17:37;;;;;;;6.18;2.00;;;;;;;18.24;37.83;101887.78;4992711;28;20046;-75
2023/02/01 06:20:03;;;;;;;7.35;2.38;;;;;;;18.28;37.90;101894.56;4993444;28;20033;-71
2023/02/01 06:22:29;;;;;;;6.35;1.85;;;;;;;18.28;37.83;101896.38;4993358;28;20771;-72
2023/02/01 06:24:54;;;;;;;6.63;2.30;;;;;;;18.29;38.07;101893.63;4993817;28;20113;-73
2023/02/01 06:27:20;;;;;;;9.93;1.90;;;;;;;18.30;38.21;101899.75;4993264;28;20045;-72
2023/02/01 06:29:45;;;;;;;7.15;1.80;;;;;;;18.33;38.16;101909.25;4993638;28;20038;-72
2023/02/01 06:32:10;;;;;;;7.50;2.00;;;;;;;18.35;38.46;101899.44;4993135;28;20034;-74
2023/02/01 06:34:37;;;;;;;6.53;1.80;;;;;;;18.36;38.55;101895.84;4993445;28;20048;-72
2023/02/01 06:37:02;;;;;;;7.63;2.08;;;;;;;18.31;38.58;101894.38;4993529;28;20077;-73
2023/02/01 06:39:28;;;;;;;10.70;2.13;;;;;;;18.33;38.78;101894.25;4993241;28;20042;-75
2023/02/01 06:41:53;;;;;;;8.23;1.95;;;;;;;18.34;39.07;101893.31;4993743;28;20054;-74
2023/02/01 06:44:18;;;;;;;7.85;1.83;;;;;;;18.41;38.88;101901.69;4992211;28;20590;-73
2023/02/01 06:46:44;;;;;;;8.65;2.15;;;;;;;18.43;39.14;101907.69;4992513;28;20113;-73
2023/02/01 06:49:09;;;;;;;6.95;1.90;;;;;;;18.39;38.90;101900.91;4992455;28;20042;-72
2023/02/01 06:51:34;;;;;;;7.05;2.03;;;;;;;18.46;39.00;101910.13;4993774;28;20042;-72
2023/02/01 06:54:00;;;;;;;9.55;2.38;;;;;;;18.46;39.29;101908.34;4992725;28;20688;-72
2023/02/01 06:56:26;;;;;;;8.25;2.10;;;;;;;18.47;39.08;101907.41;4992954;28;20471;-72
2023/02/01 06:58:52;;;;;;;9.40;2.13;;;;;;;18.44;39.33;101904.97;4992340;28;20029;-73
2023/02/01 07:01:17;;;;;;;8.07;1.98;;;;;;;18.44;39.64;101906.75;4993019;28;20037;-72
2023/02/01 07:03:47;;;;;;;9.48;2.58;;;;;;;18.46;39.32;101910.97;4992392;28;20046;-72
2023/02/01 07:06:12;;;;;;;8.63;2.22;;;;;;;18.49;39.57;101908.13;4992287;28;20116;-73
2023/02/01 07:08:38;;;;;;;6.63;2.10;;;;;;;18.51;39.38;101904.56;4992945;28;20109;-73
2023/02/01 07:11:08;;;;;;;7.47;2.05;;;;;;;18.54;39.71;101905.19;4992235;28;20272;-74
2023/02/01 07:13:34;;;;;;;7.60;1.92;;;;;;;18.52;39.57;101898.31;4992206;28;20476;-73
2023/02/01 07:16:05;;;;;;;9.98;2.72;;;;;;;18.51;39.59;101915.13;4992190;28;20027;-71
2023/02/01 07:18:31;;;;;;;8.75;2.47;;;;;;;18.51;39.85;101892.19;4992195;28;20045;-73
2023/02/01 07:20:57;;;;;;;9.30;2.38;;;;;;;18.51;39.71;101894.84;4992054;28;20042;-71
2023/02/01 07:23:23;;;;;;;7.25;2.08;;;;;;;18.48;39.78;101895.91;4991517;28;20903;-71
2023/02/01 07:25:52;;;;;;;7.47;2.17;;;;;;;18.48;39.94;101897.66;4992624;28;20070;-71
2023/02/01 07:28:17;;;;;;;9.48;2.58;;;;;;;18.49;40.06;101902.84;4992315;28;20061;-70
2023/02/01 07:30:43;;;;;;;10.27;2.22;;;;;;;18.51;40.48;101901.91;4992054;28;20092;-72
2023/02/01 07:33:08;;;;;;;10.07;2.55;;;;;;;18.53;40.71;101914.03;4992701;28;20557;-71
2023/02/01 07:35:34;;;;;;;7.70;2.10;;;;;;;18.52;40.61;101911.50;4992238;28;20041;-73
2023/02/01 07:37:59;;;;;;;8.13;2.20;;;;;;;18.52;40.89;101912.38;4992996;28;20030;-76
2023/02/01 07:40:28;;;;;;;7.30;1.80;;;;;;;18.54;41.00;101917.56;4991580;28;20707;-73
2023/02/01 07:42:55;;;;;;;11.93;2.33;;;;;;;18.56;41.02;101921.75;4992516;28;20034;-71
2023/02/01 07:45:20;;;;;;;6.43;1.92;;;;;;;18.60;41.33;101922.44;4991394;28;20442;-75
2023/02/01 07:47:45;;;;;;;9.70;2.20;;;;;;;18.61;41.33;101926.75;4992571;28;20037;-73
2023/02/01 07:50:11;;;;;;;8.73;2.10;;;;;;;18.62;41.35;101921.38;4992151;28;20061;-74
2023/02/01 07:52:36;;;;;;;9.93;2.55;;;;;;;18.63;41.46;101927.50;4992676;28;20533;-76
2023/02/01 07:55:01;;;;;;;10.18;2.28;;;;;;;18.66;41.84;101925.50;4991795;28;20036;-74
2023/02/01 07:57:27;;;;;;;7.82;2.28;;;;;;;18.66;42.00;101919.38;4992354;28;20033;-72
2023/02/01 08:02:36;;;;;;;10.23;2.05;;;;;;;18.70;42.36;101912.09;4992895;28;20095;-72
2023/02/01 08:05:01;;;;;;;15.30;3.15;;;;;;;18.68;41.89;101918.31;4992820;28;20121;-73
2023/02/01 08:07:26;;;;;;;13.18;2.22;;;;;;;18.71;42.02;101924.34;4991905;28;20049;-73
2023/02/01 08:09:52;;;;;;;7.43;2.03;;;;;;;18.72;41.78;101937.44;4993004;28;20117;-71
2023/02/01 08:12:17;;;;;;;9.23;2.20;;;;;;;18.72;41.95;101936.59;4991137;28;20840;-72
2023/02/01 08:14:42;;;;;;;8.43;2.22;;;;;;;18.73;41.95;101948.88;4991310;28;20307;-72
2023/02/01 08:17:07;;;;;;;10.77;2.22;;;;;;;18.74;42.06;101942.63;4991547;28;20066;-70
2023/02/01 08:19:33;;;;;;;10.75;2.78;;;;;;;18.70;42.10;101949.91;4992048;28;20034;-73
2023/02/01 08:21:59;;;;;;;7.60;2.22;;;;;;;18.74;41.99;101947.91;4991207;28;20097;-71
2023/02/01 08:24:24;;;;;;;8.18;2.00;;;;;;;18.72;42.05;101940.06;4992043;28;20030;-73
2023/02/01 08:26:50;;;;;;;9.43;2.20;;;;;;;18.73;42.15;101939.13;4992329;28;20022;-72
2023/02/01 08:29:15;;;;;;;9.30;2.20;;;;;;;18.70;42.18;101928.78;4990966;28;20042;-72
2023/02/01 08:31:41;;;;;;;8.02;2.50;;;;;;;18.74;42.09;101937.34;4992127;28;20041;-71
2023/02/01 08:34:08;;;;;;;9.90;2.05;;;;;;;18.74;42.12;101940.84;4994597;28;20040;-70
2023/02/01 08:36:34;;;;;;;8.98;2.20;;;;;;;18.75;42.24;101955.72;4995576;28;20038;-70
2023/02/01 08:39:00;;;;;;;7.88;2.25;;;;;;;18.76;42.22;101954.78;4991698;28;20060;-73
2023/02/01 08:41:28;;;;;;;9.73;2.15;;;;;;;18.74;42.33;101951.41;4993373;28;20052;-71
2023/02/01 08:43:55;;;;;;;8.35;2.08;;;;;;;18.77;42.37;101950.34;4993580;28;20038;-69
2023/02/01 08:46:22;;;;;;;9.13;2.33;;;;;;;18.76;42.24;101943.38;4992525;28;20046;-76
2023/02/01 08:48:48;;;;;;;9.43;2.55;;;;;;;18.75;42.26;101931.94;4992602;28;20038;-72
2023/02/01 08:51:16;;;;;;;8.38;2.28;;;;;;;18.74;42.18;101937.34;4992092;28;20932;-72
2023/02/01 08:53:42;;;;;;;10.68;2.33;;;;;;;18.77;42.16;101937.13;4993478;28;20044;-74
2023/02/01 08:56:08;;;;;;;6.50;2.25;;;;;;;18.76;42.19;101938.94;4993674;28;20130;-71
2023/02/01 08:58:34;;;;;;;10.30;2.35;;;;;;;18.74;41.99;101935.56;4992756;28;20046;-71
2023/02/01 09:01:06;;;;;;;9.18;2.40;;;;;;;18.75;41.98;101928.47;4993019;28;20034;-71
2023/02/01 09:03:32;;;;;;;8.70;2.42;;;;;;;18.73;41.82;101920.66;4993815;28;20030;-71
2023/02/01 09:06:05;;;;;;;11.40;2.20;;;;;;;18.74;42.00;101922.34;4994125;28;20034;-74
2023/02/01 09:08:32;;;;;;;9.90;2.45;;;;;;;18.74;41.95;101914.44;4993239;28;20034;-73
2023/02/01 09:11:01;;;;;;;11.38;2.17;;;;;;;18.71;42.04;101908.50;4994208;28;20042;-72
2023/02/01 09:13:27;;;;;;;9.57;1.98;;;;;;;18.75;41.97;101904.72;4992052;28;20611;-77
2023/02/01 09:15:53;;;;;;;7.88;2.03;;;;;;;18.74;41.95;101908.28;4991560;28;20042;-73
2023/02/01 09:18:18;;;;;;;10.05;2.33;;;;;;;18.73;41.98;101904.81;4990012;28;20036;-74
2023/02/01 09:20:43;;;;;;;10.20;2.88;;;;;;;18.75;42.00;101905.53;4991667;28;20030;-74
2023/02/01 09:23:09;;;;;;;6.80;1.92;;;;;;;18.76;41.96;101907.25;4993839;28;20040;-73
2023/02/01 09:25:36;;;;;;;7.22;2.20;;;;;;;18.76;42.05;101909.88;4993306;28;20586;-75
2023/02/01 09:28:03;;;;;;;8.60;2.35;;;;;;;18.75;42.20;101894.97;4992957;28;20065;-71
2023/02/01 09:30:29;;;;;;;11.25;2.05;;;;;;;18.79;42.02;101899.13;4992636;28;20029;-74
2023/02/01 09:32:54;;;;;;;7.65;2.30;;;;;;;18.75;42.17;101904.72;4994289;28;20034;-70
2023/02/01 09:35:19;;;;;;;9.73;2.40;;;;;;;18.79;42.10;101887.72;4992036;28;20053;-74
2023/02/01 09:37:44;;;;;;;11.35;2.97;;;;;;;18.79;42.61;101893.00;4992014;28;20307;-75
2023/02/01 09:40:16;;;;;;;6.93;2.15;;;;;;;18.79;42.70;101907.03;5000610;28;20133;-72
2023/02/01 09:43:15;;;;;;;9.20;2.80;;;;;;;18.72;42.90;101883.78;4992045;28;20030;-72
2023/02/01 09:45:58;;;;;;;7.97;2.30;;;;;;;18.76;42.90;101909.06;4992069;28;20573;-73
2023/02/01 09:48:29;;;;;;;9.82;2.33;;;;;;;18.77;42.67;101908.94;4992427;28;20052;-73
2023/02/01 09:50:56;;;;;;;10.32;3.03;;;;;;;18.75;42.80;101899.44;4991625;28;20076;-74
2023/02/01 09:53:33;;;;;;;12.80;3.08;;;;;;;18.78;42.87;101892.13;4988735;28;20101;-70
2023/02/01 09:56:07;;;;;;;8.10;2.65;;;;;;;18.76;42.67;101901.13;4946834;28;20108;-74
2023/02/01 09:58:44;;;;;;;10.95;2.75;;;;;;;18.81;42.74;101896.38;4992513;28;20043;-70
2023/02/01 10:01:23;;;;;;;8.52;2.53;;;;;;;18.91;42.75;101883.41;4991732;28;20038;-73
2023/02/01 10:03:50;;;;;;;6.47;2.25;;;;;;;19.00;42.41;101874.88;4990911;28;20037;-71
2023/02/01 10:06:44;;;;;;;9.07;2.22;;;;;;;19.11;42.33;101892.63;4992944;28;20070;-69
2023/02/01 10:09:21;;;;;;;7.50;2.33;;;;;;;19.13;42.20;101899.47;4991778;28;20042;-71
2023/02/01 10:12:12;;;;;;;9.70;2.38;;;;;;;19.06;42.29;101911.44;4992878;28;20505;-70
2023/02/01 10:14:53;;;;;;;11.63;2.83;;;;;;;19.07;43.05;101914.91;4991391;28;20691;-69
2023/02/01 10:17:52;;;;;;;10.65;2.65;;;;;;;19.05;43.29;101909.75;4993175;28;20197;-72
2023/02/01 10:20:23;;;;;;;10.25;2.13;;;;;;;19.01;43.38;101910.91;4993144;28;20140;-69
2023/02/01 10:23:11;;;;;;;11.38;2.35;;;;;;;18.98;43.59;101919.03;4995431;28;20069;-69
2023/02/01 10:25:48;;;;;;;10.88;2.40;;;;;;;19.00;43.83;101928.53;4995021;28;20065;-71
2023/02/01 10:28:16;;;;;;;7.45;2.42;;;;;;;18.95;43.29;101932.47;4992821;28;20038;-71
2023/02/01 10:30:47;;;;;;;9.70;2.35;;;;;;;18.93;42.99;101921.13;4996126;28;20038;-69
2023/02/01 10:33:22;;;;;;;6.93;2.20;;;;;;;18.93;42.93;101927.28;4996323;28;20037;-69
2023/02/01 10:35:54;;;;;;;9.98;2.75;;;;;;;18.90;42.76;101926.63;4995321;28;20113;-72
2023/02/01 10:38:27;;;;;;;10.70;2.17;;;;;;;18.89;42.81;101923.16;4994889;28;20048;-70
2023/02/01 10:40:58;;;;;;;7.95;2.10;;;;;;;18.91;42.84;101946.81;4994221;28;20066;-70
2023/02/01 10:43:23;;;;;;;9.20;2.30;;;;;;;18.90;42.71;101939.81;4993806;28;20044;-70
2023/02/01 10:45:48;;;;;;;9.43;2.40;;;;;;;18.89;42.51;101946.91;4996549;28;20030;-68
2023/02/01 10:48:14;;;;;;;8.98;2.40;;;;;;;18.84;42.45;101933.19;4993234;28;20049;-73
2023/02/01 10:50:42;;;;;;;11.45;2.45;;;;;;;18.84;42.57;101931.38;4992475;28;20481;-69
2023/02/01 10:53:45;;;;;;;10.35;2.30;;;;;;;18.85;42.30;101914.59;4993503;28;20034;-68
2023/02/01 10:56:12;;;;;;;8.35;2.28;;;;;;;18.85;42.57;101934.88;4992798;28;20498;-68
2023/02/01 10:58:47;;;;;;;8.50;2.13;;;;;;;18.81;42.64;101920.16;4992748;28;20037;-69
2023/02/01 11:01:19;;;;;;;8.25;2.63;;;;;;;18.78;42.55;101921.19;4992577;28;20038;-69
2023/02/01 11:03:57;;;;;;;12.07;2.40;;;;;;;18.81;42.53;101913.06;4993101;28;20149;-68
2023/02/01 11:06:32;;;;;;;12.32;2.60;;;;;;;18.77;42.46;101903.66;4992450;28;20283;-70
2023/02/01 11:09:08;;;;;;;11.38;2.97;;;;;;;18.78;42.34;101902.69;4999910;28;20045;-69
2023/02/01 11:11:45;;;;;;;11.02;2.10;;;;;;;18.78;42.29;101889.50;4994175;28;20619;-69
2023/02/01 11:14:15;;;;;;;8.38;2.15;;;;;;;18.74;42.11;101893.31;4994590;28;20065;-71
2023/02/01 11:16:48;;;;;;;16.55;2.50;;;;;;;18.78;42.78;101893.94;4991341;28;20037;-70
2023/02/01 11:19:15;;;;;;;10.57;2.22;;;;;;;18.83;42.95;101887.41;4993220;28;20041;-71
2023/02/01 11:21:44;;;;;;;8.05;2.05;;;;;;;18.83;42.93;101876.84;4992360;28;20093;-68
2023/02/01 11:24:38;;;;;;;9.15;2.50;;;;;;;18.80;42.63;101874.41;4991281;28;20036;-68
2023/02/01 11:27:05;;;;;;;11.45;2.33;;;;;;;18.81;42.41;101870.81;4991120;28;20030;-69
2023/02/01 11:29:43;;;;;;;12.20;2.80;;;;;;;18.83;42.55;101875.97;4991571;28;20818;-69
2023/02/01 11:32:12;;;;;;;7.45;2.10;;;;;;;18.84;42.27;101883.84;4991674;28;20038;-69
2023/02/01 11:34:38;;;;;;;8.55;2.13;;;;;;;18.84;42.43;101875.06;4992821;28;20128;-68
2023/02/01 11:37:13;;;;;;;8.20;2.10;;;;;;;18.84;42.35;101861.88;4993217;28;20065;-74
2023/02/01 11:39:39;;;;;;;;;;;;;;;18.90;42.07;101857.94;4993093;28;20030;-69
2023/02/01 11:42:13;;;;;;;8.57;1.80;;;;;;;18.85;42.05;101882.06;4991985;28;19924;-74
2023/02/01 11:44:39;;;;;;;;;;;;;;;18.88;41.84;101878.34;4998608;28;20046;-72
2023/02/01 11:47:25;;;;;;;10.60;2.33;;;;;;;18.83;42.00;101870.69;4992629;28;19924;-73
2023/02/01 11:49:57;;;;;;;10.25;3.40;;;;;;;18.79;42.16;101866.59;4992638;28;20596;-74
2023/02/01 11:53:03;;;;;;;8.88;2.05;;;;;;;18.79;41.96;101871.88;4993410;28;20119;-71
2023/02/01 11:55:31;;;;;;;10.25;2.78;;;;;;;18.78;42.17;101863.09;4992556;28;20069;-74
2023/02/01 11:58:20;;;;;;;10.57;2.58;;;;;;;18.76;42.50;101856.25;4998615;28;20037;-73
2023/02/01 12:00:51;;;;;;;9.55;2.40;;;;;;;18.77;42.46;101868.47;4992829;28;20030;-72
2023/02/01 12:03:44;;;;;;;11.88;2.70;;;;;;;18.78;42.73;101851.69;4992017;28;20088;-70
2023/02/01 12:06:34;;;;;;;8.13;2.00;;;;;;;18.76;42.26;101861.53;4992654;28;20042;-71
2023/02/01 12:09:20;;;;;;;8.75;2.35;;;;;;;18.76;42.49;101859.72;4991282;28;20091;-70
2023/02/01 12:12:10;;;;;;;10.15;2.25;;;;;;;18.77;42.54;101857.91;4968594;28;20050;-70
2023/02/01 12:14:43;;;;;;;9.40;2.20;;;;;;;18.74;42.74;101839.63;4993629;28;20054;-70
2023/02/01 12:17:32;;;;;;;9.17;2.30;;;;;;;18.76;42.66;101857.06;4993014;28;20034;-68
2023/02/01 12:20:00;;;;;;;9.15;2.22;;;;;;;18.75;42.66;101847.44;4991797;28;20637;-67
2023/02/01 12:22:42;;;;;;;6.80;1.98;;;;;;;18.75;42.70;101849.25;4993768;28;20041;-69
2023/02/01 12:25:13;;;;;;;8.20;2.42;;;;;;;18.75;42.82;101865.09;4992115;28;20545;-69
2023/02/01 12:27:41;;;;;;;7.80;2.00;;;;;;;18.77;42.82;101853.50;4991801;28;20121;-72
2023/02/01 12:30:32;;;;;;;8.13;2.08;;;;;;;18.74;42.68;101845.78;4991842;28;20146;-70
2023/02/01 12:33:35;;;;;;;9.48;2.10;;;;;;;18.77;42.67;101842.94;4992241;28;20052;-70
2023/02/01 12:36:12;;;;;;;7.82;2.33;;;;;;;18.73;42.83;101859.91;4976341;28;20038;-70
2023/02/01 12:38:51;;;;;;;11.98;3.97;;;;;;;18.75;42.63;101844.81;4991531;28;20038;-70
2023/02/01 12:41:35;;;;;;;9.00;2.15;;;;;;;18.75;42.50;101852.72;4991627;28;20486;-72
2023/02/01 12:44:12;;;;;;;9.52;2.30;;;;;;;18.72;42.40;101837.09;4991530;28;20101;-71
2023/02/01 12:46:50;;;;;;;11.55;3.10;;;;;;;18.72;42.70;101845.00;4952370;28;20096;-69
2023/02/01 12:49:37;;;;;;;10.32;2.05;;;;;;;18.71;42.91;101843.34;4991569;28;20038;-70
2023/02/01 12:52:10;;;;;;;10.18;2.40;;;;;;;18.73;43.22;101828.22;4987796;28;20049;-69
2023/02/01 12:54:43;;;;;;;8.65;2.17;;;;;;;18.78;43.06;101844.59;4990876;28;20079;-69
2023/02/01 12:57:17;;;;;;;9.50;3.58;;;;;;;18.78;43.67;101843.75;4990697;28;20120;-70
2023/02/01 12:59:48;;;;;;;11.52;3.10;;;;;;;18.80;43.47;101841.84;4990364;28;20034;-68
2023/02/01 13:02:23;;;;;;;10.15;2.08;;;;;;;18.77;43.81;101842.94;4990139;28;20467;-69
2023/02/01 13:05:11;;;;;;;10.10;2.25;;;;;;;18.76;43.72;101830.66;4989989;28;20084;-71
2023/02/01 13:07:43;;;;;;;10.43;2.72;;;;;;;18.76;43.80;101828.03;4990799;28;20307;-72
2023/02/01 13:10:17;;;;;;;8.60;2.20;;;;;;;18.78;43.87;101822.63;4990929;28;20449;-71
2023/02/01 13:12:52;;;;;;;;;;;;;;;18.92;43.84;101838.41;4991429;28;20047;-70
2023/02/01 13:15:23;;;;;;;10.75;2.78;;;;;;;18.87;43.90;101827.31;4990145;28;19917;-73
2023/02/01 13:17:53;;;;;;;22.92;4.50;;;;;;;18.85;43.80;101830.06;4990622;28;20045;-68
2023/02/01 13:20:34;;;;;;;31.92;7.47;;;;;;;18.88;43.34;101831.63;4993215;28;20042;-71
2023/02/01 13:23:04;;;;;;;30.77;8.02;;;;;;;18.79;43.80;101819.06;4994256;28;20072;-74
2023/02/01 13:25:50;;;;;;;30.25;8.38;;;;;;;18.91;43.56;101831.44;4993762;28;20030;-74
2023/02/01 13:28:28;;;;;;;27.58;8.25;;;;;;;18.86;43.87;101822.97;4993470;28;20054;-73
2023/02/01 13:31:30;;;;;;;30.65;8.45;;;;;;;18.92;43.85;101816.44;4993644;28;20883;-71
2023/02/01 13:34:43;;;;;;;26.88;7.53;;;;;;;18.95;43.72;101830.28;4992787;28;20117;-68
2023/02/01 13:37:35;;;;;;;29.80;7.70;;;;;;;18.95;43.82;101818.88;4998371;28;20077;-69
2023/02/01 13:40:38;;;;;;;27.83;7.35;;;;;;;19.00;43.57;101837.88;4995491;28;20042;-69
2023/02/01 13:43:21;;;;;;;24.50;7.65;;;;;;;18.94;43.86;101831.22;4990640;28;20116;-71